Century Bright — 3ENZ8 — position and weather

sailwx.info

Track history (hours):
 
Tides and Currents Weather Stations Pressure Air Temp Water Temp Dewpoint Dewpoint Depression Visibility Wind Speed Wind Dir Waves Ship Positions

Century Bright

Last reported at 2018-Jun-20 12:21 UTC. Time now 2018-Jun-25 03:40 UTC.
Position N 40°29' W 073°55'.

Length 136 m; draft 5.3 m.

Type: Cargo ship. MMSI: 371210000.

Date/timePositionNaut miles runAvg speedWind from/ knotsBaromVisibWave heightAir tempDewpointWater temp
2018-Jun-20 12:21N 40°29' W 073°55'413.3
2018-Jun-20 12:00N 40°31' W 074°01'713.3
2018-Jun-20 11:30N 40°38' W 074°03'1 1.3
2018-Jun-20 11:00N 40°38' W 074°04'0 0.0
2018-Jun-20 10:18N 40°38' W 074°04'0 0.0
2018-Jun-20 09:57N 40°38' W 074°04'0 0.1
2018-Jun-20 09:30N 40°38' W 074°04'0 0.0
2018-Jun-20 09:00N 40°38' W 074°04'0 0.1
2018-Jun-20 08:27N 40°38' W 074°04'0 0.0
2018-Jun-20 07:57N 40°38' W 074°04'0 0.2
2018-Jun-20 07:21N 40°38' W 074°04'0 0.1
2018-Jun-20 07:00N 40°39' W 074°04'0 0.0
2018-Jun-20 06:21N 40°39' W 074°04'0 0.1
2018-Jun-20 06:00N 40°39' W 074°04'0 0.0
2018-Jun-20 05:30N 40°39' W 074°04'0 0.0
2018-Jun-20 05:00N 40°39' W 074°04'1 2.0
2018-Jun-20 04:30N 40°39' W 074°03'5 9.8
2018-Jun-20 04:00N 40°44' W 074°01'611.7
2018-Jun-20 03:30N 40°49' W 073°58'  
2018-Jun-12 21:03N 40°52' W 073°57'0 8.1
2018-Jun-12 21:00N 40°52' W 073°57'510.2
2018-Jun-12 20:30N 40°47' W 073°60'510.4
2018-Jun-12 20:01N 40°42' W 074°02'510.6
2018-Jun-12 19:30N 40°37' W 074°03'610.5
2018-Jun-12 18:53N 40°31' W 073°59'49 7.8
2018-Jun-12 12:39N 40°02' W 073°07'210.5
2018-Jun-12 12:30N 40°01' W 073°06'5 8.4
2018-Jun-12 11:57N 39°57' W 073°05'4 9.4
2018-Jun-12 11:30N 39°53' W 073°02'611.4
2018-Jun-12 10:58N 39°50' W 072°55'511.2
2018-Jun-12 10:30N 39°46' W 072°51'611.4
2018-Jun-12 10:00N 39°40' W 072°52'1310.6
2018-Jun-12 08:44N 39°27' W 072°49'312.2
2018-Jun-12 08:30N 39°25' W 072°46'1012.0
2018-Jun-12 07:42N 39°19' W 072°36'211.8
2018-Jun-12 07:30N 39°19' W 072°33'  
Track history (hours):
 
Tides and Currents Weather Stations Pressure Air Temp Water Temp Dewpoint Dewpoint Depression Visibility Wind Speed Wind Dir Waves Ship Positions

Century Bright

Last reported at 2018-Jun-20 12:21 UTC. Time now 2018-Jun-25 03:40 UTC.
Position N 40°29' W 073°55'.

Length 136 m; draft 5.3 m.

Type: Cargo ship. MMSI: 371210000.

Date/timePositionNaut miles runAvg speedWind from/ knotsBaromVisibWave heightAir tempDewpointWater temp
2018-Jun-20 12:21N 40°29' W 073°55'413.3
2018-Jun-20 12:00N 40°31' W 074°01'713.3
2018-Jun-20 11:30N 40°38' W 074°03'1 1.3
2018-Jun-20 11:00N 40°38' W 074°04'0 0.0
2018-Jun-20 10:18N 40°38' W 074°04'0 0.0
2018-Jun-20 09:57N 40°38' W 074°04'0 0.1
2018-Jun-20 09:30N 40°38' W 074°04'0 0.0
2018-Jun-20 09:00N 40°38' W 074°04'0 0.1
2018-Jun-20 08:27N 40°38' W 074°04'0 0.0
2018-Jun-20 07:57N 40°38' W 074°04'0 0.2
2018-Jun-20 07:21N 40°38' W 074°04'0 0.1
2018-Jun-20 07:00N 40°39' W 074°04'0 0.0
2018-Jun-20 06:21N 40°39' W 074°04'0 0.1
2018-Jun-20 06:00N 40°39' W 074°04'0 0.0
2018-Jun-20 05:30N 40°39' W 074°04'0 0.0
2018-Jun-20 05:00N 40°39' W 074°04'1 2.0
2018-Jun-20 04:30N 40°39' W 074°03'5 9.8
2018-Jun-20 04:00N 40°44' W 074°01'611.7
2018-Jun-20 03:30N 40°49' W 073°58'  
2018-Jun-12 21:03N 40°52' W 073°57'0 8.1
2018-Jun-12 21:00N 40°52' W 073°57'510.2
2018-Jun-12 20:30N 40°47' W 073°60'510.4
2018-Jun-12 20:01N 40°42' W 074°02'510.6
2018-Jun-12 19:30N 40°37' W 074°03'610.5
2018-Jun-12 18:53N 40°31' W 073°59'49 7.8
2018-Jun-12 12:39N 40°02' W 073°07'210.5
2018-Jun-12 12:30N 40°01' W 073°06'5 8.4
2018-Jun-12 11:57N 39°57' W 073°05'4 9.4
2018-Jun-12 11:30N 39°53' W 073°02'611.4
2018-Jun-12 10:58N 39°50' W 072°55'511.2
2018-Jun-12 10:30N 39°46' W 072°51'611.4
2018-Jun-12 10:00N 39°40' W 072°52'1310.6
2018-Jun-12 08:44N 39°27' W 072°49'312.2
2018-Jun-12 08:30N 39°25' W 072°46'1012.0
2018-Jun-12 07:42N 39°19' W 072°36'211.8
2018-Jun-12 07:30N 39°19' W 072°33'  

Dump ship's entire track history